createdAt,value
2018-10-02T00:00:14.806Z,18.97
2018-10-02T00:02:43.886Z,17.53
2018-10-02T00:05:12.991Z,15.53
2018-10-02T00:07:42.043Z,16.67
2018-10-02T00:10:11.099Z,17.70
2018-10-02T00:12:45.165Z,17.07
2018-10-02T00:15:14.128Z,17.10
2018-10-02T00:17:43.690Z,15.57
2018-10-02T00:20:12.823Z,16.57
2018-10-02T00:22:42.110Z,16.00
2018-10-02T00:25:11.407Z,20.77
2018-10-02T00:27:40.695Z,19.23
2018-10-02T00:30:09.753Z,16.70
2018-10-02T00:32:38.796Z,16.87
2018-10-02T00:35:07.873Z,15.63
2018-10-02T00:37:36.959Z,14.10
2018-10-02T00:40:06.524Z,14.60
2018-10-02T00:42:35.571Z,12.43
2018-10-02T00:45:04.619Z,12.70
2018-10-02T00:47:33.764Z,14.23
2018-10-02T00:50:03.434Z,13.23
2018-10-02T00:52:32.877Z,14.67
2018-10-02T00:55:01.968Z,13.80
2018-10-02T00:57:31.486Z,14.83
2018-10-02T01:00:00.965Z,16.03
2018-10-02T01:02:29.971Z,10.13
2018-10-02T01:04:59.070Z,9.67
2018-10-02T01:07:28.214Z,8.10
2018-10-02T01:09:57.739Z,6.60
2018-10-02T01:12:26.771Z,7.93
2018-10-02T01:14:55.904Z,8.30
2018-10-02T01:17:25.197Z,6.27
2018-10-02T01:19:54.274Z,8.33
2018-10-02T01:22:23.443Z,5.77
2018-10-02T01:24:52.524Z,6.23
2018-10-02T01:27:21.539Z,4.87
2018-10-02T01:29:50.686Z,5.53
2018-10-02T01:32:19.804Z,5.90
2018-10-02T01:34:48.825Z,6.33
2018-10-02T01:37:17.875Z,5.23
2018-10-02T01:39:46.899Z,4.60
2018-10-02T01:42:16.421Z,6.60
2018-10-02T01:44:46.008Z,4.87
2018-10-02T01:47:15.410Z,6.33
2018-10-02T01:49:44.547Z,6.13
2018-10-02T01:52:13.837Z,9.83
2018-10-02T01:54:43.168Z,8.83
2018-10-02T01:57:12.575Z,8.80
2018-10-02T01:59:41.963Z,10.43
2018-10-02T02:02:11.442Z,11.53
2018-10-02T02:04:40.487Z,11.60
2018-10-02T02:07:09.614Z,7.67
2018-10-02T02:09:38.674Z,8.57
2018-10-02T02:12:08.016Z,6.63
2018-10-02T02:14:37.190Z,9.07
2018-10-02T02:17:06.228Z,4.93
2018-10-02T02:19:35.251Z,4.63
2018-10-02T02:22:04.361Z,5.43
2018-10-02T02:24:33.602Z,4.97
2018-10-02T02:27:02.664Z,4.90
2018-10-02T02:29:31.730Z,4.70
2018-10-02T02:32:00.816Z,4.87
2018-10-02T02:34:29.871Z,4.60
2018-10-02T02:36:58.916Z,4.53
2018-10-02T02:39:28.075Z,4.33
2018-10-02T02:41:57.249Z,14.23
2018-10-02T02:44:26.754Z,7.60
2018-10-02T02:47:00.660Z,5.30
2018-10-02T02:49:34.722Z,5.30
2018-10-02T02:52:03.939Z,6.40
2018-10-02T02:54:32.998Z,6.77
2018-10-02T02:57:02.063Z,5.87
2018-10-02T02:59:31.109Z,6.47
2018-10-02T03:02:00.125Z,10.63
2018-10-02T03:04:29.257Z,9.50
2018-10-02T03:06:58.494Z,11.03
2018-10-02T03:09:27.546Z,10.67
2018-10-02T03:11:56.733Z,14.73
2018-10-02T03:14:25.758Z,11.80
2018-10-02T03:16:54.966Z,9.60
2018-10-02T03:19:24.445Z,6.50
2018-10-02T03:21:53.591Z,4.63
2018-10-02T03:24:22.991Z,5.13
2018-10-02T03:26:52.098Z,5.37
2018-10-02T03:29:21.219Z,4.10
2018-10-02T03:31:50.614Z,3.50
2018-10-02T03:34:20.013Z,4.27
2018-10-02T03:36:49.150Z,4.50
2018-10-02T03:39:18.390Z,6.63
2018-10-02T03:41:47.533Z,3.80
2018-10-02T03:44:16.607Z,5.77
2018-10-02T03:46:45.753Z,4.43
2018-10-02T03:49:14.900Z,9.87
2018-10-02T03:51:43.897Z,7.50
2018-10-02T03:54:13.051Z,6.50
2018-10-02T03:56:42.235Z,4.17
2018-10-02T03:59:11.643Z,2.30
2018-10-02T04:01:41.156Z,3.90
2018-10-02T04:04:10.559Z,4.77
2018-10-02T04:06:40.076Z,3.10
2018-10-02T04:09:11.009Z,3.40
2018-10-02T04:11:40.558Z,3.00
2018-10-02T04:14:09.590Z,5.40
2018-10-02T04:16:38.873Z,13.57
2018-10-02T04:19:08.305Z,15.33
2018-10-02T04:21:38.054Z,18.73
2018-10-02T04:24:08.529Z,17.92
2018-10-02T04:26:38.171Z,7.57
2018-10-02T04:29:07.826Z,12.93
2018-10-02T04:31:38.007Z,6.13
2018-10-02T04:34:07.224Z,4.60
2018-10-02T04:36:36.822Z,3.47
2018-10-02T04:39:08.600Z,2.93
2018-10-02T04:41:37.931Z,5.23
2018-10-02T04:44:06.987Z,3.50
2018-10-02T04:46:36.063Z,5.47
2018-10-02T04:49:05.163Z,4.73
2018-10-02T04:51:34.265Z,6.30
2018-10-02T04:54:03.323Z,15.77
2018-10-02T04:56:32.408Z,36.67
2018-10-02T04:59:01.430Z,18.27
2018-10-02T05:01:30.542Z,17.37
2018-10-02T05:03:59.705Z,11.70
2018-10-02T05:06:28.835Z,7.70
2018-10-02T05:08:57.865Z,5.03
2018-10-02T05:11:26.990Z,3.23
2018-10-02T05:13:56.069Z,6.20
2018-10-02T05:16:25.450Z,3.80
2018-10-02T05:18:54.755Z,6.67
2018-10-02T05:21:24.099Z,3.83
2018-10-02T05:23:53.477Z,3.93
2018-10-02T05:26:22.621Z,4.13
2018-10-02T05:28:51.658Z,3.57
2018-10-02T05:31:20.702Z,4.13
2018-10-02T05:33:49.756Z,4.93
2018-10-02T05:36:18.967Z,5.20
2018-10-02T05:38:47.997Z,4.07
2018-10-02T05:41:17.217Z,4.70
2018-10-02T05:43:47.158Z,4.50
2018-10-02T05:46:16.267Z,4.07
2018-10-02T05:48:45.408Z,3.50
2018-10-02T05:51:15.157Z,4.93
2018-10-02T05:53:44.164Z,6.47
2018-10-02T05:56:13.305Z,4.20
2018-10-02T05:58:42.361Z,5.83
2018-10-02T06:01:11.490Z,5.33
2018-10-02T06:03:40.477Z,5.83
2018-10-02T06:06:09.520Z,4.17
2018-10-02T06:08:38.648Z,6.87
2018-10-02T06:11:07.829Z,5.37
2018-10-02T06:13:36.984Z,3.97
2018-10-02T06:16:05.999Z,2.90
2018-10-02T06:18:35.181Z,5.60
2018-10-02T06:21:04.452Z,4.40
2018-10-02T06:23:33.834Z,5.73
2018-10-02T06:26:02.858Z,3.43
2018-10-02T06:28:31.936Z,3.70
2018-10-02T06:31:01.015Z,3.33
2018-10-02T06:33:30.141Z,5.50
2018-10-02T06:35:59.141Z,2.70
2018-10-02T06:38:28.490Z,5.10
2018-10-02T06:40:57.355Z,5.03
2018-10-02T06:43:26.552Z,4.87
2018-10-02T06:45:55.621Z,2.23
2018-10-02T06:48:24.814Z,1.70
2018-10-02T06:50:54.145Z,3.77
2018-10-02T06:53:23.451Z,4.03
2018-10-02T06:55:52.774Z,2.87
2018-10-02T06:58:21.812Z,2.67
2018-10-02T07:00:51.172Z,3.50
2018-10-02T07:03:20.314Z,3.67
2018-10-02T07:05:49.449Z,2.33
2018-10-02T07:08:18.671Z,3.10
2018-10-02T07:10:48.044Z,3.43
2018-10-02T07:13:17.373Z,1.60
2018-10-02T07:15:46.760Z,2.20
2018-10-02T07:18:16.152Z,3.97
2018-10-02T07:20:45.278Z,2.33
2018-10-02T07:23:14.687Z,1.80
2018-10-02T07:25:43.729Z,7.17
2018-10-02T07:28:12.782Z,4.00
2018-10-02T07:30:42.000Z,3.80
2018-10-02T07:33:11.026Z,2.50
2018-10-02T07:35:40.112Z,3.83
2018-10-02T07:38:09.195Z,6.93
2018-10-02T07:40:38.272Z,3.80
2018-10-02T07:43:07.326Z,3.50
2018-10-02T07:45:36.505Z,4.83
2018-10-02T07:48:05.668Z,2.97
2018-10-02T07:50:34.865Z,4.77
2018-10-02T07:53:03.979Z,5.80
2018-10-02T07:55:33.332Z,2.23
2018-10-02T07:58:02.540Z,3.40
2018-10-02T08:00:31.567Z,2.93
2018-10-02T08:03:00.758Z,4.87
2018-10-02T08:05:30.155Z,3.67
2018-10-02T08:07:59.316Z,3.07
2018-10-02T08:10:28.389Z,3.30
2018-10-02T08:12:57.461Z,4.67
2018-10-02T08:15:26.656Z,2.97
2018-10-02T08:17:55.881Z,2.03
2018-10-02T08:20:24.946Z,2.13
2018-10-02T08:22:54.147Z,2.17
2018-10-02T08:25:23.714Z,2.37
2018-10-02T08:27:53.280Z,4.00
2018-10-02T08:30:22.419Z,2.23
2018-10-02T08:32:51.608Z,5.77
2018-10-02T08:35:20.761Z,3.17
2018-10-02T08:37:49.871Z,4.27
2018-10-02T08:40:18.979Z,5.67
2018-10-02T08:42:47.996Z,3.20
2018-10-02T08:45:17.112Z,4.03
2018-10-02T08:47:46.247Z,5.13
2018-10-02T08:50:15.296Z,4.20
2018-10-02T08:52:44.465Z,3.37
2018-10-02T08:55:13.661Z,4.83
2018-10-02T08:57:42.783Z,5.93
2018-10-02T09:00:11.817Z,5.77
2018-10-02T09:02:40.984Z,4.20
2018-10-02T09:05:10.034Z,5.00
2018-10-02T09:07:39.094Z,2.90
2018-10-02T09:10:08.430Z,3.63
2018-10-02T09:12:37.557Z,5.77
2018-10-02T09:15:12.156Z,5.93
2018-10-02T09:17:36.113Z,2.60
2018-10-02T09:20:05.218Z,2.97
2018-10-02T09:22:34.253Z,2.83
2018-10-02T09:25:03.434Z,3.30
2018-10-02T09:27:32.443Z,3.27
2018-10-02T09:30:06.705Z,4.90
2018-10-02T09:32:40.957Z,2.60
2018-10-02T09:35:14.966Z,2.90
2018-10-02T09:37:49.012Z,2.37
2018-10-02T09:40:23.273Z,1.70
2018-10-02T09:42:57.540Z,2.57
2018-10-02T09:45:27.475Z,3.70
2018-10-02T09:47:58.168Z,3.57
2018-10-02T09:50:27.217Z,2.17
2018-10-02T09:52:56.377Z,3.53
2018-10-02T09:55:25.422Z,3.87
2018-10-02T09:57:54.431Z,3.97
2018-10-02T10:00:27.587Z,3.73
2018-10-02T10:02:57.410Z,3.97
2018-10-02T10:05:27.737Z,4.27
2018-10-02T10:07:56.830Z,4.13
2018-10-02T10:10:26.340Z,3.53
2018-10-02T10:12:55.360Z,4.47
2018-10-02T10:15:24.633Z,2.63
2018-10-02T10:17:54.153Z,2.57
2018-10-02T10:20:23.409Z,2.20
2018-10-02T10:22:52.628Z,2.93
2018-10-02T10:25:21.765Z,4.20
2018-10-02T10:27:51.124Z,3.63
2018-10-02T10:30:20.203Z,3.07
2018-10-02T10:32:49.272Z,1.90
2018-10-02T10:35:18.357Z,2.20
2018-10-02T10:37:47.447Z,4.13
2018-10-02T10:40:17.730Z,2.33
2018-10-02T10:42:47.099Z,2.37
2018-10-02T10:45:16.396Z,2.47
2018-10-02T10:47:45.622Z,1.73
2018-10-02T10:50:15.275Z,3.17
2018-10-02T10:52:44.470Z,3.97
2018-10-02T10:55:22.716Z,2.03
2018-10-02T10:57:52.443Z,3.20
2018-10-02T11:00:22.065Z,1.77
2018-10-02T11:02:51.514Z,3.17
2018-10-02T11:05:20.659Z,2.60
2018-10-02T11:07:49.700Z,5.20
2018-10-02T11:10:19.604Z,3.00
2018-10-02T11:12:49.168Z,2.63
2018-10-02T11:15:19.423Z,2.63
2018-10-02T11:17:48.744Z,1.87
2018-10-02T11:20:23.081Z,4.97
2018-10-02T11:22:52.322Z,2.47
2018-10-02T11:25:21.722Z,3.70
2018-10-02T11:27:50.788Z,2.83
2018-10-02T11:30:19.906Z,3.83
2018-10-02T11:32:49.406Z,2.90
2018-10-02T11:35:18.814Z,3.63
2018-10-02T11:37:48.222Z,4.27
2018-10-02T11:40:17.677Z,4.70
2018-10-02T11:42:46.775Z,3.83
2018-10-02T11:45:15.949Z,3.47
2018-10-02T11:47:45.112Z,5.00
2018-10-02T11:50:14.111Z,3.37
2018-10-02T11:52:43.276Z,3.50
2018-10-02T11:55:12.383Z,3.93
2018-10-02T11:57:41.618Z,5.43
2018-10-02T12:00:10.903Z,4.33
2018-10-02T12:02:40.433Z,3.67
2018-10-02T12:05:09.464Z,3.53
2018-10-02T12:07:38.516Z,3.70
2018-10-02T12:10:07.658Z,3.50
2018-10-02T12:12:36.837Z,3.93
2018-10-02T12:15:06.162Z,4.03
2018-10-02T12:17:35.289Z,4.70
2018-10-02T12:20:04.422Z,5.30
2018-10-02T12:22:33.431Z,4.73
2018-10-02T12:25:02.561Z,3.90
2018-10-02T12:27:31.654Z,3.93
2018-10-02T12:30:00.745Z,5.70
2018-10-02T12:32:29.938Z,5.50
2018-10-02T12:34:59.142Z,4.83
2018-10-02T12:37:28.418Z,3.97
2018-10-02T12:39:57.548Z,4.43
2018-10-02T12:42:26.984Z,5.07
2018-10-02T12:44:56.601Z,4.30
2018-10-02T12:47:26.146Z,4.87
2018-10-02T12:49:55.527Z,4.43
2018-10-02T12:52:25.190Z,4.87
2018-10-02T12:54:54.236Z,5.73
2018-10-02T12:57:23.584Z,7.13
2018-10-02T12:59:52.628Z,6.87
2018-10-02T13:02:21.637Z,7.70
2018-10-02T13:04:50.678Z,7.60
2018-10-02T13:07:19.832Z,5.70
2018-10-02T13:09:48.907Z,5.20
2018-10-02T13:12:18.056Z,7.70
2018-10-02T13:14:47.237Z,6.47
2018-10-02T13:17:16.320Z,5.93
2018-10-02T13:19:45.719Z,6.47
2018-10-02T13:22:15.296Z,5.83
2018-10-02T13:24:44.911Z,8.63
2018-10-02T13:27:13.899Z,8.30
2018-10-02T13:29:42.932Z,6.13
2018-10-02T13:32:12.550Z,8.13
2018-10-02T13:34:41.783Z,8.53
2018-10-02T13:37:10.867Z,7.97
2018-10-02T13:39:40.360Z,7.47
2018-10-02T13:42:09.462Z,6.80
2018-10-02T13:44:38.539Z,9.07
2018-10-02T13:47:07.641Z,10.57
2018-10-02T13:49:36.776Z,9.03
2018-10-02T13:52:05.809Z,23.60
2018-10-02T13:54:34.898Z,8.80
2018-10-02T13:57:04.080Z,8.00
2018-10-02T13:59:33.455Z,7.63
2018-10-02T14:02:02.559Z,7.63
2018-10-02T14:04:31.659Z,11.50
2018-10-02T14:07:00.780Z,8.43
2018-10-02T14:09:29.942Z,7.27
2018-10-02T14:11:58.968Z,7.13
2018-10-02T14:14:28.324Z,9.33
2018-10-02T14:16:57.473Z,8.93
2018-10-02T14:19:26.912Z,8.37
2018-10-02T14:21:56.256Z,8.40
2018-10-02T14:24:25.520Z,8.27
2018-10-02T14:26:54.983Z,7.43
2018-10-02T14:29:24.539Z,9.13
2018-10-02T14:31:53.843Z,8.77
2018-10-02T14:34:23.492Z,8.30
2018-10-02T14:36:52.942Z,9.87
2018-10-02T14:39:22.430Z,9.13
2018-10-02T14:41:51.568Z,9.40
2018-10-02T14:44:20.815Z,9.53
2018-10-02T14:46:49.922Z,10.43
2018-10-02T14:49:19.116Z,10.73
2018-10-02T14:51:48.263Z,10.27
2018-10-02T14:54:17.322Z,10.30
2018-10-02T14:56:46.460Z,9.80
2018-10-02T14:59:15.745Z,10.80
2018-10-02T15:01:44.897Z,9.40
2018-10-02T15:04:13.869Z,10.10
2018-10-02T15:06:43.193Z,8.77
2018-10-02T15:09:12.891Z,8.60
2018-10-02T15:11:42.003Z,8.97
2018-10-02T15:14:11.126Z,8.40
2018-10-02T15:16:40.312Z,9.43
2018-10-02T15:19:09.339Z,9.13
2018-10-02T15:21:38.425Z,10.33
2018-10-02T15:24:07.486Z,11.50
2018-10-02T15:26:36.568Z,18.70
2018-10-02T15:29:05.757Z,15.37
2018-10-02T15:31:35.147Z,11.83
2018-10-02T15:34:04.564Z,11.80
2018-10-02T15:36:33.864Z,11.50
2018-10-02T15:39:03.020Z,14.23
2018-10-02T15:41:32.126Z,13.17
2018-10-02T15:44:01.222Z,14.73
2018-10-02T15:46:30.456Z,15.73
2018-10-02T15:48:59.560Z,14.17
2018-10-02T15:51:28.725Z,13.43
2018-10-02T15:53:57.781Z,14.20
2018-10-02T15:56:26.974Z,16.30
2018-10-02T15:58:56.067Z,13.77
2018-10-02T16:01:25.842Z,14.23
2018-10-02T16:03:54.951Z,13.10
2018-10-02T16:06:24.004Z,13.47
2018-10-02T16:08:53.080Z,9.40
2018-10-02T16:11:22.197Z,9.60
2018-10-02T16:13:51.312Z,7.80
2018-10-02T16:16:20.510Z,6.97
2018-10-02T16:18:49.940Z,6.30
2018-10-02T16:21:19.404Z,6.53
2018-10-02T16:23:48.985Z,6.33
2018-10-02T16:26:18.347Z,8.73
2018-10-02T16:28:47.601Z,10.23
2018-10-02T16:31:16.851Z,8.27
2018-10-02T16:33:45.890Z,8.20
2018-10-02T16:36:15.033Z,17.90
2018-10-02T16:38:44.278Z,35.10
2018-10-02T16:41:13.685Z,40.83
2018-10-02T16:43:42.834Z,11.90
2018-10-02T16:46:11.974Z,13.67
2018-10-02T16:48:41.256Z,12.53
2018-10-02T16:51:10.366Z,13.93
2018-10-02T16:53:39.514Z,7.77
2018-10-02T16:56:08.543Z,11.33
2018-10-02T16:58:38.395Z,10.73
2018-10-02T17:01:07.805Z,8.67
2018-10-02T17:03:37.304Z,9.00
2018-10-02T17:06:06.410Z,8.77
2018-10-02T17:08:35.498Z,9.40
2018-10-02T17:11:04.792Z,9.80
2018-10-02T17:13:34.159Z,11.63
2018-10-02T17:16:03.336Z,9.87
2018-10-02T17:18:32.367Z,10.13
2018-10-02T17:21:01.513Z,12.80
2018-10-02T17:23:31.177Z,9.63
2018-10-02T17:26:00.170Z,9.60
2018-10-02T17:28:29.362Z,9.77
2018-10-02T17:30:58.433Z,11.27
2018-10-02T17:33:27.752Z,8.90
2018-10-02T17:35:56.964Z,10.73
2018-10-02T17:38:26.026Z,8.90
2018-10-02T17:40:55.465Z,10.53
2018-10-02T17:43:24.648Z,11.20
2018-10-02T17:45:53.788Z,9.90
2018-10-02T17:48:22.796Z,13.67
2018-10-02T17:50:52.188Z,11.33
2018-10-02T17:53:22.018Z,10.90
2018-10-02T17:55:51.723Z,11.07
2018-10-02T17:58:21.134Z,10.67
2018-10-02T18:00:50.258Z,12.73
2018-10-02T18:03:19.433Z,14.30
2018-10-02T18:05:48.886Z,19.13
2018-10-02T18:08:18.027Z,17.47
2018-10-02T18:10:47.491Z,14.23
2018-10-02T18:13:16.710Z,15.90
2018-10-02T18:15:46.240Z,16.03
2018-10-02T18:18:15.393Z,19.03
2018-10-02T18:20:44.544Z,18.40
2018-10-02T18:23:13.628Z,18.40
2018-10-02T18:25:42.733Z,22.83
2018-10-02T18:28:11.796Z,20.37
2018-10-02T18:30:40.873Z,16.53
2018-10-02T18:33:10.202Z,16.43
2018-10-02T18:35:39.313Z,16.73
2018-10-02T18:38:08.335Z,17.50
2018-10-02T18:40:37.497Z,20.13
2018-10-02T18:43:06.574Z,17.03
2018-10-02T18:45:35.712Z,14.03
2018-10-02T18:48:04.716Z,15.23
2018-10-02T18:50:33.871Z,15.97
2018-10-02T18:53:03.078Z,14.40
2018-10-02T18:55:32.480Z,19.50
2018-10-02T18:58:01.638Z,15.70
2018-10-02T19:00:31.032Z,15.80
2018-10-02T19:03:00.673Z,13.60
2018-10-02T19:05:30.608Z,13.27
2018-10-02T19:07:59.689Z,15.07
2018-10-02T19:10:29.208Z,15.97
2018-10-02T19:12:58.868Z,17.17
2018-10-02T19:15:32.192Z,19.27
2018-10-02T19:18:01.291Z,25.80
2018-10-02T19:20:35.320Z,19.60
2018-10-02T19:23:04.432Z,21.10
2018-10-02T19:25:38.416Z,19.90
2018-10-02T19:28:07.947Z,21.00
2018-10-02T19:30:42.062Z,19.73
2018-10-02T19:33:11.466Z,23.17
2018-10-02T19:35:40.663Z,23.00
2018-10-02T19:38:14.588Z,19.30
2018-10-02T19:40:43.664Z,21.00
2018-10-02T19:43:14.755Z,22.77
2018-10-02T19:45:48.928Z,25.03
2018-10-02T19:48:19.736Z,21.73
2018-10-02T19:53:45.974Z,26.30
2018-10-02T19:58:56.735Z,25.17
2018-10-02T20:01:25.784Z,29.70
2018-10-02T20:03:54.914Z,26.93
2018-10-02T20:06:26.125Z,20.20
2018-10-02T20:08:55.258Z,21.07
2018-10-02T20:11:24.322Z,27.00
2018-10-02T20:13:53.377Z,26.10
2018-10-02T20:16:22.472Z,24.33
2018-10-02T20:18:51.562Z,22.93
2018-10-02T20:21:20.969Z,22.50
2018-10-02T20:23:50.004Z,24.13
2018-10-02T20:26:19.180Z,25.27
2018-10-02T20:28:48.235Z,29.73
2018-10-02T20:31:17.360Z,25.43
2018-10-02T20:33:46.676Z,29.00
2018-10-02T20:36:15.756Z,21.47
2018-10-02T20:38:44.945Z,25.80
2018-10-02T20:41:14.015Z,27.27
2018-10-02T20:43:43.210Z,24.70
2018-10-02T20:46:12.335Z,24.00
2018-10-02T20:48:41.473Z,25.53
2018-10-02T20:51:10.916Z,23.63
2018-10-02T20:53:39.997Z,25.40
2018-10-02T20:56:09.028Z,24.33
2018-10-02T20:58:38.391Z,25.40
2018-10-02T21:01:07.957Z,28.27
2018-10-02T21:03:37.221Z,128.67
2018-10-02T21:06:06.622Z,47.83
2018-10-02T21:08:35.729Z,32.50
2018-10-02T21:11:04.847Z,30.70
2018-10-02T21:13:34.008Z,24.77
2018-10-02T21:16:03.061Z,24.10
2018-10-02T21:18:32.210Z,25.90
2018-10-02T21:21:01.512Z,31.10
2018-10-02T21:23:31.070Z,28.93
2018-10-02T21:26:00.419Z,27.70
2018-10-02T21:28:29.734Z,29.07
2018-10-02T21:30:58.806Z,36.83
2018-10-02T21:33:27.964Z,38.63
2018-10-02T21:35:57.261Z,34.73
2018-10-02T21:38:26.320Z,38.47
2018-10-02T21:40:55.708Z,37.10
2018-10-02T21:43:25.240Z,50.23
2018-10-02T21:45:54.323Z,47.23
2018-10-02T21:48:23.425Z,49.83
2018-10-02T21:50:52.482Z,53.57
2018-10-02T21:53:21.612Z,58.97
2018-10-02T21:55:50.643Z,51.80
2018-10-02T21:58:20.076Z,50.80
2018-10-02T22:00:49.540Z,54.97
2018-10-02T22:03:18.959Z,50.50
2018-10-02T22:05:48.544Z,52.07
2018-10-02T22:08:17.996Z,49.93
2018-10-02T22:10:47.502Z,47.17
2018-10-02T22:13:17.004Z,49.37
2018-10-02T22:15:46.687Z,57.17
2018-10-02T22:18:16.091Z,51.70
2018-10-02T22:20:45.519Z,53.43
2018-10-02T22:23:14.893Z,58.63
2018-10-02T22:25:44.214Z,62.27
2018-10-02T22:28:13.442Z,54.03
2018-10-02T22:30:42.949Z,45.73
2018-10-02T22:33:12.739Z,49.57
2018-10-02T22:35:43.170Z,52.37
2018-10-02T22:38:12.736Z,61.10
2018-10-02T22:40:42.083Z,63.77
2018-10-02T22:43:11.480Z,53.40
2018-10-02T22:45:40.872Z,54.40
2018-10-02T22:48:10.351Z,58.17
2018-10-02T22:50:39.908Z,63.50
2018-10-02T22:53:09.406Z,61.33
2018-10-02T22:55:38.828Z,53.97
2018-10-02T22:58:08.608Z,52.20
2018-10-02T23:00:37.997Z,54.30
2018-10-02T23:03:07.310Z,56.33
2018-10-02T23:05:36.780Z,65.80
2018-10-02T23:08:06.104Z,63.47
2018-10-02T23:10:35.674Z,61.83
2018-10-02T23:13:05.062Z,61.97
2018-10-02T23:15:34.489Z,61.87
2018-10-02T23:18:04.074Z,60.37
2018-10-02T23:20:33.653Z,58.08
2018-10-02T23:23:03.184Z,54.70
2018-10-02T23:25:32.490Z,60.93
2018-10-02T23:28:01.875Z,56.40
2018-10-02T23:30:31.473Z,59.40
2018-10-02T23:33:01.069Z,56.30
2018-10-02T23:35:30.375Z,57.10
2018-10-02T23:37:59.717Z,57.90
2018-10-02T23:40:29.269Z,55.47
2018-10-02T23:42:58.682Z,62.70
2018-10-02T23:45:28.207Z,67.13
2018-10-02T23:47:57.767Z,78.37
2018-10-02T23:50:27.336Z,69.97
2018-10-02T23:52:56.846Z,65.40
2018-10-02T23:55:26.404Z,199.63
2018-10-02T23:57:55.742Z,64.43
